METAR Data
IDs: Format: Raw Decoded Include TAF

Data at: 0255 UTC 20 Jan 2022

KLHX 200238Z AUTO 10009KT 10SM OVC023 M07/M11 A3041 RMK AO2 T10721111 $
KLHX 200153Z AUTO 09008KT 10SM OVC021 M07/M11 A3039 RMK AO2 SLP325 T10671111
KLHX 200053Z AUTO 08011KT 10SM BKN021 OVC028 M06/M12 A3037 RMK AO2 SLP313 T10611117
KLHX 192353Z AUTO 09010KT 10SM OVC021 M06/M12 A3035 RMK AO2 SLP299 T10561117 11033 21056 53011
KLHX 192253Z AUTO 08011KT 10SM OVC020 M04/M10 A3033 RMK AO2 SLP292 T10441100
KLHX 192153Z AUTO 08010KT 10SM OVC018 M04/M09 A3031 RMK AO2 SLP284 T10391094
KLHX 192053Z AUTO 07009KT 10SM OVC018 M04/M09 A3031 RMK AO2 SLP280 T10391094 53001
KLHX 192009Z AUTO 06011KT 10SM BKN016 OVC024 M03/M09 A3030 RMK AO2 T10331089
KLHX 191953Z AUTO 05011KT 10SM OVC014 M03/M08 A3030 RMK AO2 SLP274 T10331083
KLHX 191924Z AUTO 06014KT 10SM BKN014 OVC020 M03/M08 A3030 RMK AO2 T10331078
KLHX 191853Z AUTO 04015KT 10SM OVC015 M03/M08 A3029 RMK AO2 SLP274 T10331078
KLHX 191846Z AUTO 05012KT 2SM HZ OVC015 M03/M08 A3030 RMK AO2 T10331078
KLHX 191753Z AUTO 05012KT 10SM OVC015 M03/M08 A3031 RMK AO2 SLP277 T10331078 10006 21033 51034
KLHX 191719Z AUTO 04012KT 10SM OVC015 M03/M07 A3030 RMK AO2 T10281072
KLHX 191653Z AUTO 08008KT 10SM OVC014 M02/M07 A3028 RMK AO2 SLP266 T10221067
KLHX 191626Z AUTO 09010KT 10SM OVC014 M02/M07 A3027 RMK AO2 PRESRR T10221067
KLHX 191553Z AUTO 11010KT 10SM OVC015 M02/M07 A3024 RMK AO2 SLP250 T10221067
KLHX 191538Z AUTO 10011KT 10SM OVC015 M02/M07 A3023 RMK AO2 T10221067
KLHX 191525Z AUTO 10010KT 10SM OVC014 M02/M07 A3022 RMK AO2 T10221067
KLHX 191453Z AUTO 10009KT 10SM OVC015 M02/M07 A3019 RMK AO2 SLP231 T10221067 53025
KLHX 191353Z AUTO 09012KT 10SM BKN019 BKN100 M02/M07 A3016 RMK AO2 SLP213 T10221067
KLHX 191323Z AUTO 09012KT 10SM OVC016 M01/M06 A3014 RMK AO2 T10111061
KLHX 191253Z AUTO 06012KT 10SM OVC012 M01/M06 A3014 RMK AO2 SLP200 T10111061
KLHX 191205Z AUTO 05013KT 10SM OVC014 00/M03 A3011 RMK AO2 T00001033
KLHX 191153Z AUTO 05014KT 10SM OVC016 01/M03 A3011 RMK AO2 SLP183 T00061033 10033 20006 51026
KLHX 191053Z AUTO 06011KT 10SM OVC023 01/M04 A3009 RMK AO2 SLP174 T00111039
KLHX 191039Z AUTO 04009KT 10SM BKN023 01/M04 A3008 RMK AO2 T00111039
KLHX 190953Z AUTO 06011KT 10SM SCT100 02/M04 A3006 RMK AO2 SLP157 T00171044
KLHX 190853Z AUTO 05013KT 10SM CLR 03/M06 A3002 RMK AO2 SLP142 T00281056 51023
KLHX 190753Z AUTO 33008KT 10SM FEW120 03/M07 A3000 RMK AO2 SLP141 T00281072
KLHX 190653Z AUTO 30006KT 10SM FEW120 02/M07 A2997 RMK AO2 SLP136 T00221072 401831028
KLHX 190553Z AUTO 30007KT 10SM CLR 03/M08 A2994 RMK AO2 SLP127 T00331078 10133 20028 51025
KLHX 190453Z AUTO 04003KT 10SM CLR 04/M09 A2992 RMK AO2 SLP128 T00391089
KLHX 190353Z AUTO 04009KT 10SM CLR 04/M10 A2989 RMK AO2 SLP120 T00441100
KLHX 190253Z AUTO 02007KT 10SM CLR 06/M12 A2986 RMK AO2 SLP110 T00561117 53027
KLHX 190153Z AUTO 04011KT 10SM CLR 09/M11 A2983 RMK AO2 SLP099 T00891111
KLHX 190053Z AUTO 11005KT 10SM CLR 12/M11 A2979 RMK AO2 SLP080 T01221106
KLHX 182353Z AUTO 12005KT 10SM CLR 13/M10 A2977 RMK AO2 SLP067 T01331100 10183 20094 53008
KLHX 182253Z AUTO 04006KT 10SM CLR 15/M11 A2976 RMK AO2 SLP061 T01501111
KLHX 182153Z AUTO 03005KT 10SM CLR 18/M11 A2974 RMK AO2 SLP051 T01781111
KLHX 182053Z AUTO 01008KT 10SM CLR 18/M11 A2974 RMK AO2 SLP052 T01781111 56024
KLHX 181953Z AUTO 30004KT 10SM CLR 15/M10 A2977 RMK AO2 SLP061 T01501100
KLHX 181853Z AUTO 31004KT 10SM CLR 12/M09 A2979 RMK AO2 SLP073 T01221094
KLHX 181753Z AUTO 31004KT 10SM CLR 09/M09 A2982 RMK AO2 SLP087 T00941094 10094 21028 50001
KLHX 181653Z AUTO 27005KT 10SM CLR 03/M09 A2984 RMK AO2 SLP106 T00331089
KLHX 181553Z AUTO 27010KT 10SM CLR 03/M09 A2983 RMK AO2 SLP100 T00281094